createdAt,value
2017-08-23T00:00:03.476Z,99.99
2017-08-23T00:05:02.959Z,99.99
2017-08-23T00:10:03.567Z,99.99
2017-08-23T00:15:03.008Z,99.99
2017-08-23T00:20:03.460Z,99.99
2017-08-23T00:25:03.035Z,99.99
2017-08-23T00:30:03.612Z,99.99
2017-08-23T00:35:03.099Z,99.99
2017-08-23T00:40:02.781Z,99.99
2017-08-23T00:45:03.362Z,99.71
2017-08-23T00:50:02.805Z,99.52
2017-08-23T00:55:03.242Z,99.33
2017-08-23T01:00:02.843Z,99.14
2017-08-23T01:05:03.240Z,99.04
2017-08-23T01:10:02.892Z,98.85
2017-08-23T01:15:03.476Z,98.57
2017-08-23T01:20:02.921Z,98.28
2017-08-23T01:25:03.363Z,98.09
2017-08-23T01:30:03.001Z,97.85
2017-08-23T01:35:03.522Z,97.75
2017-08-23T01:40:03.085Z,97.47
2017-08-23T01:45:03.490Z,97.28
2017-08-23T01:50:02.894Z,96.99
2017-08-23T01:55:03.381Z,96.89
2017-08-23T02:00:02.859Z,96.8
2017-08-23T02:05:03.403Z,96.51
2017-08-23T02:10:03.023Z,96.32
2017-08-23T02:15:03.455Z,96.13
2017-08-23T02:20:02.914Z,95.94
2017-08-23T02:25:03.497Z,95.65
2017-08-23T02:30:03.102Z,95.32
2017-08-23T02:35:03.559Z,95.12
2017-08-23T02:40:03.098Z,94.84
2017-08-23T02:45:03.541Z,94.55
2017-08-23T02:50:03.035Z,94.36
2017-08-23T02:55:03.638Z,94.17
2017-08-23T03:00:03.271Z,93.98
2017-08-23T03:05:02.872Z,93.7
2017-08-23T03:10:03.383Z,93.21
2017-08-23T03:15:02.965Z,92.93
2017-08-23T03:20:03.568Z,92.64
2017-08-23T03:25:02.962Z,92.21
2017-08-23T03:30:03.393Z,91.83
2017-08-23T03:35:02.988Z,91.64
2017-08-23T03:40:03.517Z,91.45
2017-08-23T03:45:03.046Z,91.07
2017-08-23T03:50:03.511Z,90.78
2017-08-23T03:55:02.965Z,90.4
2017-08-23T04:00:03.500Z,90.11
2017-08-23T04:05:02.983Z,89.92
2017-08-23T04:10:03.588Z,89.54
2017-08-23T04:15:03.173Z,89.35
2017-08-23T04:20:03.616Z,89.06
2017-08-23T04:25:03.162Z,88.87
2017-08-23T04:30:02.753Z,88.68
2017-08-23T04:35:03.232Z,88.59
2017-08-23T04:40:02.876Z,88.4
2017-08-23T04:45:03.274Z,88.2
2017-08-23T04:55:03.363Z,87.63
2017-08-23T05:00:02.939Z,87.63
2017-08-23T05:05:03.498Z,87.73
2017-08-23T05:10:02.971Z,87.82
2017-08-23T05:15:03.405Z,88.06
2017-08-23T05:20:03.012Z,88.25
2017-08-23T05:25:03.449Z,88.25
2017-08-23T05:30:02.868Z,88.63
2017-08-23T05:35:03.371Z,89.25
2017-08-23T05:40:02.920Z,89.82
2017-08-23T05:45:02.808Z,90.73
2017-08-23T05:50:03.277Z,91.3
2017-08-23T05:55:02.865Z,92.11
2017-08-23T06:00:03.206Z,92.69
2017-08-23T06:05:02.707Z,93.88
2017-08-23T06:10:03.176Z,94.45
2017-08-23T06:15:02.730Z,95.17
2017-08-23T06:20:03.348Z,96.66
2017-08-23T06:25:02.802Z,97.85
2017-08-23T06:30:03.364Z,99.34
2017-08-23T06:35:02.898Z,99.99
2017-08-23T06:40:03.556Z,99.99
2017-08-23T06:45:03.113Z,99.99
2017-08-23T06:50:03.705Z,99.99
2017-08-23T06:55:03.247Z,99.99
2017-08-23T07:00:03.679Z,99.99
2017-08-23T07:05:03.147Z,99.99
2017-08-23T07:10:03.624Z,99.99
2017-08-23T07:15:03.082Z,99.99
2017-08-23T07:20:03.535Z,99.99
2017-08-23T07:25:03.021Z,99.99
2017-08-23T07:30:03.598Z,99.99
2017-08-23T07:35:03.199Z,99.99
2017-08-23T07:40:03.671Z,99.99
2017-08-23T07:45:03.149Z,99.99
2017-08-23T07:50:03.672Z,99.99
2017-08-23T07:55:03.240Z,99.99
2017-08-23T08:00:02.787Z,99.99
2017-08-23T08:15:03.430Z,99.99
2017-08-23T08:20:02.865Z,99.99
2017-08-23T08:25:03.312Z,99.99
2017-08-23T08:30:02.781Z,99.99
2017-08-23T08:35:03.252Z,97.33
2017-08-23T08:40:02.874Z,94.57
2017-08-23T08:45:03.396Z,94.32
2017-08-23T08:50:03.087Z,92.86
2017-08-23T08:55:03.656Z,86.61
2017-08-23T09:00:03.031Z,85
2017-08-23T09:05:03.664Z,83.54
2017-08-23T09:10:03.244Z,82.62
2017-08-23T09:15:03.684Z,80.87
2017-08-23T09:20:03.267Z,80.87
2017-08-23T09:25:02.814Z,79.1
2017-08-23T09:30:03.392Z,79.2
2017-08-23T09:35:03.010Z,76.81
2017-08-23T09:40:03.591Z,76.35
2017-08-23T09:45:03.212Z,74.29
2017-08-23T09:50:02.760Z,72.22
2017-08-23T09:55:03.352Z,71.44
2017-08-23T10:00:02.945Z,69.82
2017-08-23T10:05:03.394Z,68.52
2017-08-23T10:10:03.007Z,68.35
2017-08-23T10:15:03.453Z,68.49
2017-08-23T10:20:02.853Z,67.54
2017-08-23T10:25:03.341Z,66.8
2017-08-23T10:30:02.926Z,65.78
2017-08-23T10:35:03.501Z,66.56
2017-08-23T10:40:03.040Z,67.38
2017-08-23T10:45:03.582Z,66.63
2017-08-23T10:50:03.140Z,67.35
2017-08-23T10:55:03.724Z,68.52
2017-08-23T11:00:03.310Z,67.12
2017-08-23T11:05:02.886Z,66.31
2017-08-23T11:10:03.486Z,64.84
2017-08-23T11:15:03.133Z,65.26
2017-08-23T11:20:03.580Z,64.16
2017-08-23T11:25:03.070Z,63.7
2017-08-23T11:30:03.552Z,64.06
2017-08-23T11:35:03.018Z,63.77
2017-08-23T11:40:03.663Z,63.96
2017-08-23T11:45:03.448Z,63.77
2017-08-23T11:50:02.986Z,63.51
2017-08-23T11:55:03.435Z,62.43
2017-08-23T12:00:02.946Z,62.36
2017-08-23T12:05:03.527Z,61.93
2017-08-23T12:10:03.023Z,61.97
2017-08-23T12:15:03.452Z,61.51
2017-08-23T12:20:03.023Z,61.48
2017-08-23T12:25:03.569Z,62.56
2017-08-23T12:30:03.162Z,62.56
2017-08-23T12:35:02.701Z,61.15
2017-08-23T12:40:03.290Z,61.32
2017-08-23T12:45:02.830Z,60.66
2017-08-23T12:50:03.289Z,60.4
2017-08-23T12:55:02.855Z,59.98
2017-08-23T13:00:03.399Z,59.12
2017-08-23T13:05:02.854Z,57.53
2017-08-23T13:10:03.340Z,58.26
2017-08-23T13:15:02.758Z,57.93
2017-08-23T13:20:03.446Z,58.3
2017-08-23T13:25:02.940Z,58.86
2017-08-23T13:30:03.378Z,59.99
2017-08-23T13:35:02.800Z,59.79
2017-08-23T13:40:03.448Z,58.23
2017-08-23T13:45:02.848Z,59.15
2017-08-23T13:50:03.398Z,59.31
2017-08-23T13:55:02.776Z,58.73
2017-08-23T14:00:03.377Z,59.26
2017-08-23T14:05:02.963Z,59.16
2017-08-23T14:10:03.566Z,61.44
2017-08-23T14:15:02.986Z,62.38
2017-08-23T14:20:03.471Z,61.41
2017-08-23T14:25:02.900Z,62.09
2017-08-23T14:30:03.409Z,62.67
2017-08-23T14:35:02.835Z,61.96
2017-08-23T14:40:03.320Z,62.29
2017-08-23T14:45:02.731Z,61.34
2017-08-23T14:50:03.372Z,60.59
2017-08-23T14:55:02.925Z,61.18
2017-08-23T15:00:03.511Z,60.88
2017-08-23T15:05:02.956Z,60.69
2017-08-23T15:10:03.454Z,61.21
2017-08-23T15:15:02.911Z,62.19
2017-08-23T15:20:03.334Z,61.87
2017-08-23T15:25:02.860Z,62.61
2017-08-23T15:30:03.256Z,63.42
2017-08-23T15:35:03.711Z,63.71
2017-08-23T15:40:03.194Z,63.97
2017-08-23T15:45:02.945Z,64.69
2017-08-23T15:50:03.394Z,65.23
2017-08-23T16:00:03.389Z,66.6
2017-08-23T16:05:02.806Z,67.38
2017-08-23T16:10:03.331Z,68.02
2017-08-23T16:15:02.862Z,67.83
2017-08-23T16:20:03.376Z,69.19
2017-08-23T16:25:02.840Z,68.32
2017-08-23T16:30:03.255Z,68.22
2017-08-23T16:35:02.827Z,69.96
2017-08-23T16:40:03.303Z,69.93
2017-08-23T16:45:02.885Z,70.12
2017-08-23T16:50:03.473Z,71.29
2017-08-23T16:55:03.033Z,70.9
2017-08-23T17:00:03.486Z,71
2017-08-23T17:05:03.108Z,71.58
2017-08-23T17:10:03.612Z,72.65
2017-08-23T17:15:03.030Z,72.91
2017-08-23T17:20:03.642Z,72.42
2017-08-23T17:25:03.178Z,72.49
2017-08-23T17:30:02.719Z,73.16
2017-08-23T17:35:03.203Z,73.61
2017-08-23T17:40:02.754Z,74.77
2017-08-23T17:45:03.265Z,75.61
2017-08-23T17:50:02.783Z,76
2017-08-23T17:55:03.364Z,76.19
2017-08-23T18:00:02.948Z,76.83
2017-08-23T18:05:03.621Z,77.28
2017-08-23T18:10:03.151Z,78.44
2017-08-23T18:15:03.670Z,78.92
2017-08-23T18:20:03.151Z,79.47
2017-08-23T18:25:02.751Z,79.33
2017-08-23T18:30:03.482Z,79.72
2017-08-23T18:35:02.942Z,80.2
2017-08-23T18:40:03.538Z,80.94
2017-08-23T18:45:03.146Z,81.9
2017-08-23T18:50:02.746Z,82.78
2017-08-23T18:55:03.296Z,83.99
2017-08-23T19:00:02.777Z,85.15
2017-08-23T19:05:03.461Z,86.65
2017-08-23T19:10:02.883Z,87.91
2017-08-23T19:15:03.449Z,89.55
2017-08-23T19:20:02.846Z,90.81
2017-08-23T19:25:03.420Z,92.79
2017-08-23T19:30:02.908Z,93.85
2017-08-23T19:35:03.434Z,94.92
2017-08-23T19:40:02.999Z,95.98
2017-08-23T19:45:03.564Z,96.99
2017-08-23T19:50:03.131Z,98.63
2017-08-23T19:55:03.557Z,99.6
2017-08-23T20:00:03.130Z,99.99
2017-08-23T20:05:03.626Z,99.99
2017-08-23T20:10:03.300Z,99.99
2017-08-23T20:15:02.853Z,99.99
2017-08-23T20:20:03.329Z,99.99
2017-08-23T20:25:02.902Z,99.99
2017-08-23T20:30:03.387Z,99.99
2017-08-23T20:35:02.847Z,99.99
2017-08-23T20:40:03.291Z,99.99
2017-08-23T20:45:02.900Z,99.99
2017-08-23T20:50:03.453Z,99.99
2017-08-23T20:55:02.973Z,99.99
2017-08-23T21:00:03.601Z,99.99
2017-08-23T21:05:03.123Z,99.99
2017-08-23T21:10:03.667Z,99.99
2017-08-23T21:15:03.214Z,99.99
2017-08-23T21:20:02.761Z,99.99
2017-08-23T21:25:03.330Z,99.99
2017-08-23T21:30:02.974Z,99.99
2017-08-23T21:35:03.433Z,99.99
2017-08-23T21:40:03.030Z,99.99
2017-08-23T21:45:03.552Z,99.99
2017-08-23T21:50:03.012Z,99.99
2017-08-23T21:55:03.530Z,99.99
2017-08-23T22:00:03.078Z,99.99
2017-08-23T22:05:03.627Z,99.99
2017-08-23T22:10:03.226Z,99.99
2017-08-23T22:15:02.825Z,99.99
2017-08-23T22:20:03.267Z,99.99
2017-08-23T22:25:02.736Z,99.99
2017-08-23T22:30:03.181Z,99.99
2017-08-23T22:35:03.591Z,98.14
2017-08-23T22:40:03.183Z,91.7
2017-08-23T22:45:03.693Z,88.62
2017-08-23T22:50:03.085Z,86.02
2017-08-23T22:55:03.452Z,83.48
2017-08-23T23:00:03.202Z,81.46
2017-08-23T23:05:03.305Z,79.63
2017-08-23T23:10:02.929Z,76.46
2017-08-23T23:15:03.481Z,78
2017-08-23T23:20:03.118Z,76.04
2017-08-23T23:25:03.622Z,74.4
2017-08-23T23:30:03.162Z,74.02
2017-08-23T23:35:03.664Z,73.44
2017-08-23T23:40:03.146Z,73.44
2017-08-23T23:45:03.524Z,72.77
2017-08-23T23:50:03.045Z,72.67
2017-08-23T23:55:03.515Z,73.31
